createdAt,value
2022-11-25T00:00:23.924Z,7.90
2022-11-25T00:03:09.775Z,6.95
2022-11-25T00:05:55.126Z,7.68
2022-11-25T00:08:42.144Z,7.50
2022-11-25T00:11:27.887Z,7.25
2022-11-25T00:14:15.151Z,7.95
2022-11-25T00:17:00.790Z,7.10
2022-11-25T00:19:48.924Z,6.93
2022-11-25T00:22:34.172Z,7.32
2022-11-25T00:25:19.752Z,7.80
2022-11-25T00:28:05.236Z,7.93
2022-11-25T00:30:50.739Z,8.55
2022-11-25T00:33:37.125Z,8.85
2022-11-25T00:36:32.817Z,8.15
2022-11-25T00:39:18.584Z,8.70
2022-11-25T00:42:22.621Z,8.45
2022-11-25T00:45:08.874Z,9.43
2022-11-25T00:47:54.639Z,8.80
2022-11-25T00:50:39.906Z,8.32
2022-11-25T00:53:25.323Z,8.02
2022-11-25T00:56:13.326Z,6.95
2022-11-25T00:58:58.851Z,6.90
2022-11-25T01:01:44.654Z,8.13
2022-11-25T01:04:30.527Z,7.15
2022-11-25T01:07:17.287Z,7.95
2022-11-25T01:10:03.036Z,7.47
2022-11-25T01:12:48.291Z,7.78
2022-11-25T01:15:37.319Z,8.13
2022-11-25T01:18:22.780Z,8.63
2022-11-25T01:21:16.464Z,7.80
2022-11-25T01:24:03.867Z,7.90
2022-11-25T01:26:49.456Z,7.93
2022-11-25T01:29:35.115Z,7.65
2022-11-25T01:32:21.013Z,7.97
2022-11-25T01:35:07.766Z,8.52
2022-11-25T01:37:53.405Z,9.93
2022-11-25T01:40:38.742Z,10.30
2022-11-25T01:43:24.925Z,9.27
2022-11-25T01:46:28.127Z,10.05
2022-11-25T01:49:24.408Z,9.48
2022-11-25T01:52:18.579Z,9.20
2022-11-25T01:55:20.060Z,8.90
2022-11-25T01:58:07.612Z,8.85
2022-11-25T02:00:53.072Z,8.48
2022-11-25T02:03:44.636Z,9.27
2022-11-25T02:06:36.382Z,8.40
2022-11-25T02:09:23.115Z,8.85
2022-11-25T02:12:08.755Z,8.85
2022-11-25T02:14:56.906Z,8.38
2022-11-25T02:17:44.139Z,8.60
2022-11-25T02:20:30.199Z,8.52
2022-11-25T02:23:43.764Z,8.48
2022-11-25T02:26:29.701Z,8.13
2022-11-25T02:29:15.372Z,7.32
2022-11-25T02:32:01.083Z,7.65
2022-11-25T02:34:48.058Z,8.07
2022-11-25T02:37:33.569Z,8.13
2022-11-25T02:40:19.200Z,7.53
2022-11-25T02:43:04.818Z,7.95
2022-11-25T02:46:06.386Z,7.40
2022-11-25T02:49:08.990Z,8.48
2022-11-25T02:51:54.857Z,8.30
2022-11-25T02:54:40.522Z,7.80
2022-11-25T02:57:25.834Z,8.77
2022-11-25T03:00:12.213Z,8.30
2022-11-25T03:02:57.756Z,8.73
2022-11-25T03:05:43.759Z,8.70
2022-11-25T03:08:29.201Z,8.35
2022-11-25T03:11:14.915Z,7.95
2022-11-25T03:14:00.694Z,7.70
2022-11-25T03:16:46.294Z,7.60
2022-11-25T03:19:32.266Z,8.15
2022-11-25T03:22:18.081Z,8.23
2022-11-25T03:25:03.924Z,7.68
2022-11-25T03:27:50.178Z,7.55
2022-11-25T03:30:35.703Z,7.30
2022-11-25T03:33:21.262Z,7.07
2022-11-25T03:36:07.015Z,7.53
2022-11-25T03:38:52.722Z,7.03
2022-11-25T03:41:38.285Z,6.93
2022-11-25T03:44:23.754Z,7.63
2022-11-25T03:47:09.275Z,7.18
2022-11-25T03:49:54.618Z,7.95
2022-11-25T03:52:40.496Z,7.78
2022-11-25T03:55:26.139Z,7.00
2022-11-25T03:58:11.469Z,7.28
2022-11-25T04:01:01.104Z,7.20
2022-11-25T04:03:46.613Z,6.90
2022-11-25T04:06:32.276Z,7.50
2022-11-25T04:09:18.119Z,7.30
2022-11-25T04:12:21.924Z,8.20
2022-11-25T04:15:07.981Z,8.00
2022-11-25T04:17:53.634Z,7.13
2022-11-25T04:20:39.464Z,7.07
2022-11-25T04:23:24.775Z,10.38
2022-11-25T04:26:10.722Z,10.07
2022-11-25T04:28:56.359Z,8.10
2022-11-25T04:31:42.008Z,7.15
2022-11-25T04:34:27.163Z,8.23
2022-11-25T04:37:12.889Z,7.32
2022-11-25T04:39:58.216Z,7.25
2022-11-25T04:42:43.854Z,7.68
2022-11-25T04:45:45.371Z,7.53
2022-11-25T04:48:35.212Z,7.35
2022-11-25T04:51:21.169Z,8.25
2022-11-25T04:54:06.520Z,7.75
2022-11-25T04:56:52.040Z,7.07
2022-11-25T04:59:40.176Z,7.22
2022-11-25T05:02:27.112Z,6.88
2022-11-25T05:05:13.205Z,7.90
2022-11-25T05:07:58.925Z,6.57
2022-11-25T05:10:44.282Z,7.07
2022-11-25T05:13:29.617Z,6.55
2022-11-25T05:16:15.541Z,7.07
2022-11-25T05:19:01.524Z,7.60
2022-11-25T05:21:47.032Z,7.00
2022-11-25T05:24:32.554Z,7.05
2022-11-25T05:27:18.704Z,8.02
2022-11-25T05:30:04.777Z,6.47
2022-11-25T05:32:50.346Z,6.80
2022-11-25T05:35:36.044Z,7.80
2022-11-25T05:38:21.440Z,7.47
2022-11-25T05:41:08.374Z,7.18
2022-11-25T05:43:54.223Z,7.18
2022-11-25T05:46:39.921Z,7.13
2022-11-25T05:49:25.342Z,6.70
2022-11-25T05:52:10.733Z,7.82
2022-11-25T05:54:57.535Z,6.88
2022-11-25T05:57:43.199Z,7.10
2022-11-25T06:00:28.638Z,7.45
2022-11-25T06:03:14.095Z,8.15
2022-11-25T06:06:00.135Z,7.72
2022-11-25T06:08:45.880Z,7.90
2022-11-25T06:11:31.331Z,8.35
2022-11-25T06:14:17.880Z,8.35
2022-11-25T06:17:04.394Z,8.05
2022-11-25T06:19:50.109Z,7.63
2022-11-25T06:22:35.825Z,7.60
2022-11-25T06:25:21.436Z,7.82
2022-11-25T06:28:14.475Z,8.95
2022-11-25T06:31:09.507Z,8.30
2022-11-25T06:33:55.198Z,7.93
2022-11-25T06:36:40.947Z,7.32
2022-11-25T06:39:26.569Z,7.05
2022-11-25T06:42:11.903Z,7.93
2022-11-25T06:44:57.517Z,7.40
2022-11-25T06:47:42.869Z,8.15
2022-11-25T06:50:28.286Z,7.20
2022-11-25T06:53:13.677Z,7.18
2022-11-25T06:56:14.194Z,7.18
2022-11-25T06:58:59.746Z,7.72
2022-11-25T07:01:45.222Z,7.20
2022-11-25T07:04:31.244Z,7.18
2022-11-25T07:07:16.607Z,7.20
2022-11-25T07:10:02.134Z,6.50
2022-11-25T07:12:48.209Z,15.13
2022-11-25T07:15:35.029Z,7.93
2022-11-25T07:18:20.727Z,7.85
2022-11-25T07:21:08.997Z,7.78
2022-11-25T07:23:54.504Z,8.23
2022-11-25T07:26:41.447Z,8.10
2022-11-25T07:29:51.963Z,7.50
2022-11-25T07:32:33.744Z,7.60
2022-11-25T07:35:19.301Z,7.80
2022-11-25T07:38:05.347Z,7.88
2022-11-25T07:40:51.029Z,7.80
2022-11-25T07:43:37.570Z,7.22
2022-11-25T07:46:27.452Z,7.43
2022-11-25T07:49:16.321Z,7.43
2022-11-25T07:52:04.473Z,7.60
2022-11-25T07:54:50.086Z,7.47
2022-11-25T07:57:35.408Z,7.25
2022-11-25T08:00:21.506Z,7.88
2022-11-25T08:03:06.881Z,8.13
2022-11-25T08:05:52.402Z,7.50
2022-11-25T08:08:39.005Z,7.10
2022-11-25T08:11:29.391Z,6.95
2022-11-25T08:14:15.838Z,7.03
2022-11-25T08:17:01.082Z,7.15
2022-11-25T08:19:46.726Z,7.32
2022-11-25T08:22:31.888Z,7.90
2022-11-25T08:25:17.922Z,7.45
2022-11-25T08:28:03.254Z,7.88
2022-11-25T08:30:48.641Z,6.90
2022-11-25T08:33:34.299Z,6.65
2022-11-25T08:36:20.696Z,6.78
2022-11-25T08:39:28.894Z,6.53
2022-11-25T08:42:14.089Z,6.20
2022-11-25T08:45:00.302Z,6.05
2022-11-25T08:47:45.617Z,6.15
2022-11-25T08:50:30.958Z,6.97
2022-11-25T08:53:16.392Z,20.83
2022-11-25T08:56:01.849Z,9.05
2022-11-25T08:58:48.908Z,8.68
2022-11-25T09:01:34.299Z,6.20
2022-11-25T09:04:19.788Z,6.13
2022-11-25T09:07:05.636Z,6.40
2022-11-25T09:09:51.427Z,6.65
2022-11-25T09:12:36.907Z,5.93
2022-11-25T09:15:22.516Z,5.57
2022-11-25T09:18:09.285Z,6.03
2022-11-25T09:20:54.946Z,6.40
2022-11-25T09:23:40.701Z,7.05
2022-11-25T09:26:35.609Z,6.60
2022-11-25T09:29:21.492Z,6.60
2022-11-25T09:32:07.283Z,7.80
2022-11-25T09:34:52.641Z,6.35
2022-11-25T09:37:38.152Z,5.78
2022-11-25T09:41:03.473Z,4.90
2022-11-25T09:44:27.261Z,4.70
2022-11-25T09:47:18.123Z,4.65
2022-11-25T09:50:12.983Z,4.68
2022-11-25T09:53:22.783Z,4.63
2022-11-25T09:56:27.074Z,4.40
2022-11-25T09:59:37.577Z,3.95
2022-11-25T10:02:42.726Z,4.63
2022-11-25T10:05:34.075Z,3.63
2022-11-25T10:08:26.123Z,3.83
2022-11-25T10:11:21.263Z,4.40
2022-11-25T10:14:35.278Z,4.40
2022-11-25T10:17:51.941Z,4.10
2022-11-25T10:20:41.010Z,4.13
2022-11-25T10:23:34.039Z,4.35
2022-11-25T10:26:24.429Z,4.18
2022-11-25T10:29:28.899Z,5.10
2022-11-25T10:32:23.648Z,4.18
2022-11-25T10:35:20.826Z,4.25
2022-11-25T10:38:18.649Z,4.57
2022-11-25T10:41:05.730Z,4.90
2022-11-25T10:43:51.452Z,4.30
2022-11-25T10:47:15.379Z,4.75
2022-11-25T10:50:15.466Z,3.80
2022-11-25T10:53:20.250Z,3.53
2022-11-25T10:56:17.876Z,3.53
2022-11-25T10:59:14.437Z,3.67
2022-11-25T11:02:24.938Z,4.22
2022-11-25T11:05:10.387Z,4.05
2022-11-25T11:08:18.590Z,7.43
2022-11-25T11:11:18.622Z,6.28
2022-11-25T11:14:19.236Z,8.63
2022-11-25T11:17:05.146Z,14.25
2022-11-25T11:20:14.395Z,18.70
2022-11-25T11:23:10.395Z,9.30
2022-11-25T11:26:02.417Z,5.60
2022-11-25T11:28:48.159Z,6.57
2022-11-25T11:31:39.434Z,8.00
2022-11-25T11:34:34.605Z,13.20
2022-11-25T11:37:38.314Z,12.75
2022-11-25T11:40:32.711Z,12.25
2022-11-25T11:43:35.510Z,11.65
2022-11-25T11:46:50.807Z,6.55
2022-11-25T11:49:45.341Z,6.53
2022-11-25T11:52:49.131Z,8.15
2022-11-25T11:56:33.487Z,5.50
2022-11-25T11:59:42.757Z,5.88
2022-11-25T12:02:53.056Z,4.70
2022-11-25T12:05:39.319Z,6.53
2022-11-25T12:08:38.144Z,12.85
2022-11-25T12:11:30.273Z,7.13
2022-11-25T12:14:32.906Z,4.13
2022-11-25T12:17:25.885Z,4.05
2022-11-25T12:20:34.832Z,4.65
2022-11-25T12:23:46.400Z,4.55
2022-11-25T12:26:57.023Z,3.88
2022-11-25T12:29:53.992Z,4.20
2022-11-25T12:32:59.229Z,4.60
2022-11-25T12:36:11.253Z,5.05
2022-11-25T12:39:23.239Z,4.38
2022-11-25T12:42:22.826Z,3.70
2022-11-25T12:45:20.838Z,4.38
2022-11-25T12:48:10.479Z,3.88
2022-11-25T12:51:05.274Z,3.78
2022-11-25T12:54:13.291Z,3.45
2022-11-25T12:57:07.718Z,3.35
2022-11-25T13:03:44.806Z,3.70
2022-11-25T13:06:49.133Z,3.30
2022-11-25T13:10:07.282Z,4.43
2022-11-25T13:13:31.230Z,3.50
2022-11-25T13:16:19.846Z,3.00
2022-11-25T13:19:12.233Z,3.85
2022-11-25T13:22:21.241Z,3.30
2022-11-25T13:25:25.800Z,3.05
2022-11-25T13:28:37.187Z,3.92
2022-11-25T13:31:44.433Z,4.57
2022-11-25T13:34:37.057Z,3.00
2022-11-25T13:37:37.041Z,3.38
2022-11-25T13:40:30.455Z,3.42
2022-11-25T13:43:23.203Z,3.30
2022-11-25T13:46:08.586Z,3.78
2022-11-25T13:48:54.583Z,4.30
2022-11-25T13:51:53.117Z,3.28
2022-11-25T13:54:50.897Z,2.80
2022-11-25T13:57:39.906Z,2.13
2022-11-25T14:00:25.545Z,2.45
2022-11-25T14:03:20.313Z,2.20
2022-11-25T14:06:52.645Z,2.00
2022-11-25T14:10:07.603Z,2.10
2022-11-25T14:13:07.920Z,2.40
2022-11-25T14:16:11.409Z,3.03
2022-11-25T14:19:50.815Z,2.72
2022-11-25T14:22:51.736Z,2.70
2022-11-25T14:25:55.358Z,2.83
2022-11-25T14:28:52.203Z,2.88
2022-11-25T14:31:54.600Z,3.33
2022-11-25T14:35:13.708Z,3.70
2022-11-25T14:38:04.270Z,4.75
2022-11-25T14:41:18.303Z,3.22
2022-11-25T14:44:09.566Z,3.05
2022-11-25T14:46:58.999Z,2.47
2022-11-25T14:49:59.670Z,2.63
2022-11-25T14:52:52.538Z,3.08
2022-11-25T14:55:38.380Z,2.97
2022-11-25T14:58:24.055Z,3.28
2022-11-25T15:01:23.453Z,2.67
2022-11-25T15:04:22.348Z,2.72
2022-11-25T15:07:20.619Z,3.10
2022-11-25T15:10:07.221Z,2.45
2022-11-25T15:12:53.803Z,2.58
2022-11-25T15:15:40.125Z,2.50
2022-11-25T15:18:26.073Z,4.32
2022-11-25T15:21:14.861Z,2.95
2022-11-25T15:24:00.453Z,1.70
2022-11-25T15:26:52.191Z,4.38
2022-11-25T15:29:42.687Z,4.40
2022-11-25T15:32:31.799Z,9.13
2022-11-25T15:35:26.727Z,7.13
2022-11-25T15:38:20.386Z,12.57
2022-11-25T15:41:14.396Z,10.13
2022-11-25T15:44:05.131Z,11.57
2022-11-25T15:46:56.613Z,7.22
2022-11-25T15:50:08.422Z,4.13
2022-11-25T15:52:58.992Z,2.88
2022-11-25T15:55:44.825Z,2.15
2022-11-25T15:58:30.418Z,1.90
2022-11-25T16:01:15.932Z,1.70
2022-11-25T16:04:21.361Z,1.83
2022-11-25T16:07:22.612Z,1.80
2022-11-25T16:10:17.985Z,1.75
2022-11-25T16:13:23.055Z,2.25
2022-11-25T16:16:09.218Z,1.83
2022-11-25T16:19:14.943Z,4.82
2022-11-25T16:24:58.708Z,5.43
2022-11-25T16:27:47.872Z,3.28
2022-11-25T16:30:37.821Z,4.57
2022-11-25T16:33:24.698Z,3.38
2022-11-25T16:36:10.399Z,10.38
2022-11-25T16:38:55.791Z,10.63
2022-11-25T16:41:42.361Z,9.80
2022-11-25T16:44:28.534Z,6.85
2022-11-25T16:47:14.413Z,3.90
2022-11-25T16:49:59.850Z,2.90
2022-11-25T16:52:45.453Z,2.60
2022-11-25T16:55:31.293Z,3.63
2022-11-25T16:58:20.980Z,4.00
2022-11-25T17:01:10.716Z,3.75
2022-11-25T17:03:56.780Z,5.00
2022-11-25T17:06:50.598Z,8.70
2022-11-25T17:09:49.174Z,16.40
2022-11-25T17:12:35.705Z,11.77
2022-11-25T17:15:29.665Z,6.40
2022-11-25T17:18:19.470Z,4.72
2022-11-25T17:21:05.326Z,4.28
2022-11-25T17:23:53.951Z,3.60
2022-11-25T17:26:43.005Z,3.70
2022-11-25T17:29:41.274Z,3.65
2022-11-25T17:32:27.372Z,3.40
2022-11-25T17:35:19.053Z,5.90
2022-11-25T17:38:14.054Z,4.90
2022-11-25T17:40:59.718Z,4.05
2022-11-25T17:43:48.052Z,4.03
2022-11-25T17:46:33.497Z,6.05
2022-11-25T17:49:18.884Z,6.22
2022-11-25T17:52:04.387Z,8.93
2022-11-25T17:54:49.827Z,6.30
2022-11-25T17:57:35.656Z,4.93
2022-11-25T18:00:22.493Z,3.80
2022-11-25T18:03:13.172Z,3.70
2022-11-25T18:05:58.855Z,3.70
2022-11-25T18:08:44.390Z,3.20
2022-11-25T18:11:29.790Z,3.42
2022-11-25T18:14:33.490Z,3.15
2022-11-25T18:17:19.687Z,3.45
2022-11-25T18:20:17.029Z,3.63
2022-11-25T18:23:02.742Z,3.20
2022-11-25T18:25:48.199Z,4.07
2022-11-25T18:28:33.711Z,3.45
2022-11-25T18:31:19.147Z,3.75
2022-11-25T18:34:13.155Z,4.28
2022-11-25T18:36:58.591Z,4.50
2022-11-25T18:39:44.366Z,4.20
2022-11-25T18:42:29.867Z,4.78
2022-11-25T18:45:20.899Z,4.60
2022-11-25T18:48:18.627Z,5.53
2022-11-25T18:51:04.079Z,5.40
2022-11-25T18:53:49.563Z,4.90
2022-11-25T18:56:36.720Z,5.93
2022-11-25T18:59:34.046Z,5.80
2022-11-25T19:02:19.879Z,4.10
2022-11-25T19:05:18.104Z,4.00
2022-11-25T19:08:03.613Z,3.88
2022-11-25T19:10:49.458Z,5.28
2022-11-25T19:13:36.469Z,5.20
2022-11-25T19:16:22.883Z,4.20
2022-11-25T19:19:14.698Z,5.10
2022-11-25T19:22:01.537Z,4.80
2022-11-25T19:24:46.997Z,6.97
2022-11-25T19:27:37.975Z,4.00
2022-11-25T19:30:26.352Z,6.35
2022-11-25T19:33:24.978Z,5.30
2022-11-25T19:36:20.492Z,6.38
2022-11-25T19:39:16.954Z,6.18
2022-11-25T19:42:02.482Z,3.85
2022-11-25T19:44:47.874Z,4.57
2022-11-25T19:47:33.551Z,4.68
2022-11-25T19:50:25.492Z,5.00
2022-11-25T19:53:17.622Z,4.88
2022-11-25T19:56:04.794Z,4.35
2022-11-25T19:58:52.660Z,4.70
2022-11-25T20:01:42.569Z,4.50
2022-11-25T20:04:28.023Z,4.93
2022-11-25T20:07:17.326Z,5.15
2022-11-25T20:10:15.964Z,6.45
2022-11-25T20:13:01.387Z,5.47
2022-11-25T20:15:47.124Z,5.68
2022-11-25T20:18:39.906Z,5.82
2022-11-25T20:21:40.389Z,4.78
2022-11-25T20:24:27.036Z,4.90
2022-11-25T20:27:13.298Z,4.93
2022-11-25T20:29:59.062Z,4.50
2022-11-25T20:32:44.974Z,5.05
2022-11-25T20:35:30.794Z,4.80
2022-11-25T20:38:20.473Z,9.90
2022-11-25T20:41:06.504Z,23.08
2022-11-25T20:43:52.166Z,16.60
2022-11-25T20:46:37.818Z,10.32
2022-11-25T20:49:29.619Z,9.55
2022-11-25T20:52:27.165Z,10.90
2022-11-25T20:55:18.221Z,12.13
2022-11-25T20:58:22.050Z,12.48
2022-11-25T21:01:07.795Z,10.48
2022-11-25T21:03:53.343Z,7.72
2022-11-25T21:06:41.099Z,6.70
2022-11-25T21:09:32.701Z,6.13
2022-11-25T21:12:19.728Z,5.57
2022-11-25T21:15:16.172Z,5.32
2022-11-25T21:18:01.819Z,5.38
2022-11-25T21:20:49.279Z,6.22
2022-11-25T21:23:37.120Z,6.00
2022-11-25T21:26:25.903Z,7.28
2022-11-25T21:29:16.447Z,7.80
2022-11-25T21:32:02.222Z,6.80
2022-11-25T21:34:48.609Z,7.20
2022-11-25T21:37:37.939Z,9.00
2022-11-25T21:40:42.712Z,9.00
2022-11-25T21:43:33.841Z,6.45
2022-11-25T21:46:21.492Z,10.40
2022-11-25T21:49:11.787Z,8.65
2022-11-25T21:51:57.463Z,7.30
2022-11-25T21:54:42.959Z,7.80
2022-11-25T21:57:29.199Z,7.53
2022-11-25T22:00:22.544Z,7.47
2022-11-25T22:03:15.778Z,6.88
2022-11-25T22:06:01.682Z,6.97
2022-11-25T22:08:47.525Z,6.03
2022-11-25T22:11:38.562Z,5.28
2022-11-25T22:14:34.579Z,5.38
2022-11-25T22:17:20.705Z,5.63
2022-11-25T22:20:22.077Z,5.10
2022-11-25T22:23:26.558Z,4.72
2022-11-25T22:26:32.188Z,5.10
2022-11-25T22:29:21.292Z,4.57
2022-11-25T22:32:12.730Z,5.35
2022-11-25T22:34:58.639Z,4.53
2022-11-25T22:37:44.578Z,4.28
2022-11-25T22:40:30.438Z,4.30
2022-11-25T22:43:20.938Z,4.78
2022-11-25T22:46:07.201Z,5.88
2022-11-25T22:48:52.793Z,5.22
2022-11-25T22:51:38.263Z,5.03
2022-11-25T22:54:24.159Z,5.32
2022-11-25T22:57:10.336Z,4.63
2022-11-25T22:59:55.935Z,5.35
2022-11-25T23:02:41.685Z,4.95
2022-11-25T23:05:35.522Z,4.70
2022-11-25T23:08:29.518Z,4.55
2022-11-25T23:11:17.999Z,5.75
2022-11-25T23:14:03.634Z,5.07
2022-11-25T23:16:49.426Z,5.22
2022-11-25T23:19:34.738Z,5.05
2022-11-25T23:22:20.592Z,5.40
2022-11-25T23:25:17.671Z,5.15
2022-11-25T23:28:03.422Z,5.13
2022-11-25T23:30:56.556Z,5.43
2022-11-25T23:33:48.682Z,5.03
2022-11-25T23:36:40.057Z,4.63
2022-11-25T23:39:27.292Z,4.47
2022-11-25T23:42:18.103Z,4.80
2022-11-25T23:45:07.031Z,4.43
2022-11-25T23:47:55.368Z,4.30
2022-11-25T23:50:40.951Z,4.35
2022-11-25T23:53:32.155Z,3.85
2022-11-25T23:56:18.093Z,4.32
2022-11-25T23:59:03.464Z,4.10
